sensor_id;sensor_type;location;lat;lon;timestamp;P1;durP1;ratioP1;P2;durP2;ratioP2
71696;SDS011;59528;59.082;37.926;2022-07-23T00:00:11;10.97;;;9.87;;
71696;SDS011;59528;59.082;37.926;2022-07-23T00:02:37;11.07;;;9.97;;
71696;SDS011;59528;59.082;37.926;2022-07-23T00:05:03;10.17;;;9.17;;
71696;SDS011;59528;59.082;37.926;2022-07-23T00:07:28;10.77;;;8.83;;
71696;SDS011;59528;59.082;37.926;2022-07-23T00:09:54;9.47;;;8.47;;
71696;SDS011;59528;59.082;37.926;2022-07-23T00:12:20;10.20;;;9.30;;
71696;SDS011;59528;59.082;37.926;2022-07-23T00:14:45;10.00;;;9.00;;
71696;SDS011;59528;59.082;37.926;2022-07-23T00:17:11;9.70;;;8.70;;
71696;SDS011;59528;59.082;37.926;2022-07-23T00:19:36;9.90;;;8.90;;
71696;SDS011;59528;59.082;37.926;2022-07-23T00:22:02;9.20;;;8.30;;
71696;SDS011;59528;59.082;37.926;2022-07-23T00:24:27;9.87;;;8.57;;
71696;SDS011;59528;59.082;37.926;2022-07-23T00:26:53;9.87;;;8.50;;
71696;SDS011;59528;59.082;37.926;2022-07-23T00:29:19;9.37;;;8.47;;
71696;SDS011;59528;59.082;37.926;2022-07-23T00:31:44;8.83;;;8.03;;
71696;SDS011;59528;59.082;37.926;2022-07-23T00:34:10;9.70;;;8.30;;
71696;SDS011;59528;59.082;37.926;2022-07-23T00:36:36;8.67;;;7.80;;
71696;SDS011;59528;59.082;37.926;2022-07-23T00:39:02;9.83;;;8.67;;
71696;SDS011;59528;59.082;37.926;2022-07-23T00:41:27;9.87;;;8.50;;
71696;SDS011;59528;59.082;37.926;2022-07-23T00:43:54;9.80;;;8.13;;
71696;SDS011;59528;59.082;37.926;2022-07-23T00:46:20;9.43;;;8.63;;
71696;SDS011;59528;59.082;37.926;2022-07-23T00:48:45;9.93;;;8.93;;
71696;SDS011;59528;59.082;37.926;2022-07-23T00:51:11;8.67;;;7.90;;
71696;SDS011;59528;59.082;37.926;2022-07-23T00:53:37;9.13;;;8.07;;
71696;SDS011;59528;59.082;37.926;2022-07-23T00:56:02;8.90;;;8.07;;
71696;SDS011;59528;59.082;37.926;2022-07-23T00:58:28;8.83;;;8.00;;
71696;SDS011;59528;59.082;37.926;2022-07-23T01:00:57;9.27;;;8.27;;
71696;SDS011;59528;59.082;37.926;2022-07-23T01:03:22;9.10;;;8.27;;
71696;SDS011;59528;59.082;37.926;2022-07-23T01:05:48;8.97;;;8.07;;
71696;SDS011;59528;59.082;37.926;2022-07-23T01:08:14;11.03;;;8.57;;
71696;SDS011;59528;59.082;37.926;2022-07-23T01:10:40;11.17;;;8.67;;
71696;SDS011;59528;59.082;37.926;2022-07-23T01:13:07;12.93;;;8.60;;
71696;SDS011;59528;59.082;37.926;2022-07-23T01:15:34;12.50;;;8.60;;
71696;SDS011;59528;59.082;37.926;2022-07-23T01:18:01;11.30;;;9.17;;
71696;SDS011;59528;59.082;37.926;2022-07-23T01:20:28;10.77;;;7.93;;
71696;SDS011;59528;59.082;37.926;2022-07-23T01:22:54;12.60;;;8.07;;
71696;SDS011;59528;59.082;37.926;2022-07-23T01:25:20;12.27;;;8.60;;
71696;SDS011;59528;59.082;37.926;2022-07-23T01:27:53;11.07;;;8.50;;
71696;SDS011;59528;59.082;37.926;2022-07-23T01:30:19;12.27;;;8.13;;
71696;SDS011;59528;59.082;37.926;2022-07-23T01:32:48;13.43;;;8.97;;
71696;SDS011;59528;59.082;37.926;2022-07-23T01:35:14;17.30;;;9.17;;
71696;SDS011;59528;59.082;37.926;2022-07-23T01:37:39;18.13;;;8.70;;
71696;SDS011;59528;59.082;37.926;2022-07-23T01:40:06;22.57;;;9.90;;
71696;SDS011;59528;59.082;37.926;2022-07-23T01:42:32;20.70;;;9.13;;
71696;SDS011;59528;59.082;37.926;2022-07-23T01:44:58;12.70;;;8.80;;
71696;SDS011;59528;59.082;37.926;2022-07-23T01:47:24;14.97;;;8.90;;
71696;SDS011;59528;59.082;37.926;2022-07-23T01:49:53;11.23;;;8.53;;
71696;SDS011;59528;59.082;37.926;2022-07-23T01:52:38;11.27;;;8.83;;
71696;SDS011;59528;59.082;37.926;2022-07-23T01:55:05;10.23;;;8.70;;
71696;SDS011;59528;59.082;37.926;2022-07-23T01:57:31;12.40;;;8.47;;
71696;SDS011;59528;59.082;37.926;2022-07-23T01:59:57;11.33;;;9.20;;
71696;SDS011;59528;59.082;37.926;2022-07-23T02:02:23;11.10;;;8.97;;
71696;SDS011;59528;59.082;37.926;2022-07-23T02:04:49;10.13;;;8.70;;
71696;SDS011;59528;59.082;37.926;2022-07-23T02:07:16;10.50;;;8.30;;
71696;SDS011;59528;59.082;37.926;2022-07-23T02:09:42;8.50;;;7.60;;
71696;SDS011;59528;59.082;37.926;2022-07-23T02:12:07;11.70;;;7.73;;
71696;SDS011;59528;59.082;37.926;2022-07-23T02:14:33;9.13;;;8.20;;
71696;SDS011;59528;59.082;37.926;2022-07-23T02:16:58;10.50;;;8.33;;
71696;SDS011;59528;59.082;37.926;2022-07-23T02:19:24;9.00;;;8.10;;
71696;SDS011;59528;59.082;37.926;2022-07-23T02:21:50;8.80;;;7.90;;
71696;SDS011;59528;59.082;37.926;2022-07-23T02:24:18;8.43;;;7.73;;
71696;SDS011;59528;59.082;37.926;2022-07-23T02:26:43;9.50;;;8.33;;
71696;SDS011;59528;59.082;37.926;2022-07-23T02:29:10;9.73;;;8.43;;
71696;SDS011;59528;59.082;37.926;2022-07-23T02:31:36;8.73;;;7.83;;
71696;SDS011;59528;59.082;37.926;2022-07-23T02:34:01;10.07;;;8.27;;
71696;SDS011;59528;59.082;37.926;2022-07-23T02:36:27;11.07;;;8.20;;
71696;SDS011;59528;59.082;37.926;2022-07-23T02:38:56;14.20;;;8.50;;
71696;SDS011;59528;59.082;37.926;2022-07-23T02:41:22;9.40;;;8.30;;
71696;SDS011;59528;59.082;37.926;2022-07-23T02:43:47;9.07;;;7.90;;
71696;SDS011;59528;59.082;37.926;2022-07-23T02:46:14;8.90;;;8.00;;
71696;SDS011;59528;59.082;37.926;2022-07-23T02:48:40;9.27;;;8.27;;
71696;SDS011;59528;59.082;37.926;2022-07-23T02:51:05;11.17;;;8.53;;
71696;SDS011;59528;59.082;37.926;2022-07-23T02:53:40;9.40;;;8.47;;
71696;SDS011;59528;59.082;37.926;2022-07-23T02:56:06;10.63;;;7.93;;
71696;SDS011;59528;59.082;37.926;2022-07-23T02:58:31;10.33;;;8.53;;
71696;SDS011;59528;59.082;37.926;2022-07-23T03:00:57;9.77;;;8.60;;
71696;SDS011;59528;59.082;37.926;2022-07-23T03:03:24;12.07;;;8.80;;
71696;SDS011;59528;59.082;37.926;2022-07-23T03:05:50;13.73;;;9.17;;
71696;SDS011;59528;59.082;37.926;2022-07-23T03:08:15;14.13;;;8.13;;
71696;SDS011;59528;59.082;37.926;2022-07-23T03:10:45;12.70;;;8.60;;
71696;SDS011;59528;59.082;37.926;2022-07-23T03:13:10;14.57;;;9.27;;
71696;SDS011;59528;59.082;37.926;2022-07-23T03:15:36;16.30;;;8.70;;
71696;SDS011;59528;59.082;37.926;2022-07-23T03:18:03;22.53;;;9.07;;
71696;SDS011;59528;59.082;37.926;2022-07-23T03:20:28;17.63;;;9.47;;
71696;SDS011;59528;59.082;37.926;2022-07-23T03:22:54;13.00;;;8.50;;
71696;SDS011;59528;59.082;37.926;2022-07-23T03:25:20;15.93;;;8.23;;
71696;SDS011;59528;59.082;37.926;2022-07-23T03:27:46;18.70;;;9.33;;
71696;SDS011;59528;59.082;37.926;2022-07-23T03:30:12;14.33;;;8.67;;
71696;SDS011;59528;59.082;37.926;2022-07-23T03:32:37;14.43;;;8.77;;
71696;SDS011;59528;59.082;37.926;2022-07-23T03:35:04;18.13;;;8.83;;
71696;SDS011;59528;59.082;37.926;2022-07-23T03:37:30;10.47;;;8.37;;
71696;SDS011;59528;59.082;37.926;2022-07-23T03:39:57;12.00;;;9.10;;
71696;SDS011;59528;59.082;37.926;2022-07-23T03:42:23;15.27;;;9.07;;
71696;SDS011;59528;59.082;37.926;2022-07-23T03:44:49;9.30;;;8.13;;
71696;SDS011;59528;59.082;37.926;2022-07-23T03:47:17;9.00;;;8.07;;
71696;SDS011;59528;59.082;37.926;2022-07-23T03:49:47;9.00;;;7.97;;
71696;SDS011;59528;59.082;37.926;2022-07-23T03:52:12;9.60;;;7.33;;
71696;SDS011;59528;59.082;37.926;2022-07-23T03:54:38;8.60;;;7.70;;
71696;SDS011;59528;59.082;37.926;2022-07-23T03:57:03;8.67;;;7.33;;
71696;SDS011;59528;59.082;37.926;2022-07-23T03:59:29;7.83;;;6.40;;
71696;SDS011;59528;59.082;37.926;2022-07-23T04:01:55;7.57;;;6.67;;
71696;SDS011;59528;59.082;37.926;2022-07-23T04:04:21;6.63;;;6.00;;
71696;SDS011;59528;59.082;37.926;2022-07-23T04:06:47;6.77;;;6.07;;
71696;SDS011;59528;59.082;37.926;2022-07-23T04:09:14;6.37;;;5.80;;
71696;SDS011;59528;59.082;37.926;2022-07-23T04:11:39;6.13;;;5.20;;
71696;SDS011;59528;59.082;37.926;2022-07-23T04:14:06;6.83;;;5.33;;
71696;SDS011;59528;59.082;37.926;2022-07-23T04:16:31;6.00;;;5.23;;
71696;SDS011;59528;59.082;37.926;2022-07-23T04:18:57;7.97;;;5.53;;
71696;SDS011;59528;59.082;37.926;2022-07-23T04:21:24;5.83;;;5.33;;
71696;SDS011;59528;59.082;37.926;2022-07-23T04:23:49;5.87;;;5.37;;
71696;SDS011;59528;59.082;37.926;2022-07-23T04:26:15;6.10;;;5.10;;
71696;SDS011;59528;59.082;37.926;2022-07-23T04:28:41;7.03;;;4.90;;
71696;SDS011;59528;59.082;37.926;2022-07-23T04:31:06;7.50;;;5.60;;
71696;SDS011;59528;59.082;37.926;2022-07-23T04:33:34;9.87;;;5.50;;
71696;SDS011;59528;59.082;37.926;2022-07-23T04:36:04;11.23;;;5.63;;
71696;SDS011;59528;59.082;37.926;2022-07-23T04:38:30;11.93;;;5.50;;
71696;SDS011;59528;59.082;37.926;2022-07-23T04:40:59;12.40;;;5.80;;
71696;SDS011;59528;59.082;37.926;2022-07-23T04:43:25;10.90;;;5.93;;
71696;SDS011;59528;59.082;37.926;2022-07-23T04:45:52;13.37;;;5.93;;
71696;SDS011;59528;59.082;37.926;2022-07-23T04:48:18;14.83;;;6.20;;
71696;SDS011;59528;59.082;37.926;2022-07-23T04:50:44;13.20;;;5.97;;
71696;SDS011;59528;59.082;37.926;2022-07-23T04:53:17;13.40;;;5.83;;
71696;SDS011;59528;59.082;37.926;2022-07-23T04:55:44;10.70;;;5.17;;
71696;SDS011;59528;59.082;37.926;2022-07-23T04:58:09;8.10;;;5.23;;
71696;SDS011;59528;59.082;37.926;2022-07-23T05:00:35;7.30;;;5.43;;
71696;SDS011;59528;59.082;37.926;2022-07-23T05:03:01;6.97;;;4.77;;
71696;SDS011;59528;59.082;37.926;2022-07-23T05:05:26;5.53;;;5.03;;
71696;SDS011;59528;59.082;37.926;2022-07-23T05:07:56;5.30;;;4.57;;
71696;SDS011;59528;59.082;37.926;2022-07-23T05:10:22;5.87;;;4.53;;
71696;SDS011;59528;59.082;37.926;2022-07-23T05:12:48;6.03;;;4.53;;
71696;SDS011;59528;59.082;37.926;2022-07-23T05:15:13;6.00;;;4.70;;
71696;SDS011;59528;59.082;37.926;2022-07-23T05:17:39;5.23;;;4.13;;
71696;SDS011;59528;59.082;37.926;2022-07-23T05:20:11;5.20;;;4.50;;
71696;SDS011;59528;59.082;37.926;2022-07-23T05:22:36;5.47;;;4.83;;
71696;SDS011;59528;59.082;37.926;2022-07-23T05:25:02;7.40;;;4.40;;
71696;SDS011;59528;59.082;37.926;2022-07-23T05:27:30;4.20;;;3.90;;
71696;SDS011;59528;59.082;37.926;2022-07-23T05:29:56;5.27;;;4.73;;
71696;SDS011;59528;59.082;37.926;2022-07-23T05:32:21;4.70;;;4.30;;
71696;SDS011;59528;59.082;37.926;2022-07-23T05:34:54;5.97;;;4.50;;
71696;SDS011;59528;59.082;37.926;2022-07-23T05:37:20;4.90;;;4.50;;
71696;SDS011;59528;59.082;37.926;2022-07-23T05:39:45;5.27;;;4.77;;
71696;SDS011;59528;59.082;37.926;2022-07-23T05:42:11;4.77;;;4.33;;
71696;SDS011;59528;59.082;37.926;2022-07-23T05:44:37;7.57;;;4.60;;
71696;SDS011;59528;59.082;37.926;2022-07-23T05:47:03;8.53;;;4.47;;
71696;SDS011;59528;59.082;37.926;2022-07-23T05:49:29;7.87;;;5.00;;
71696;SDS011;59528;59.082;37.926;2022-07-23T05:52:13;6.50;;;4.43;;
71696;SDS011;59528;59.082;37.926;2022-07-23T05:55:09;5.10;;;4.60;;
71696;SDS011;59528;59.082;37.926;2022-07-23T05:57:35;6.00;;;4.30;;
71696;SDS011;59528;59.082;37.926;2022-07-23T06:00:01;9.57;;;5.97;;
71696;SDS011;59528;59.082;37.926;2022-07-23T06:02:28;7.30;;;6.50;;
71696;SDS011;59528;59.082;37.926;2022-07-23T06:04:53;7.77;;;5.67;;
71696;SDS011;59528;59.082;37.926;2022-07-23T06:07:25;7.37;;;5.70;;
71696;SDS011;59528;59.082;37.926;2022-07-23T06:09:51;9.63;;;5.00;;
71696;SDS011;59528;59.082;37.926;2022-07-23T06:12:16;5.27;;;4.87;;
71696;SDS011;59528;59.082;37.926;2022-07-23T06:14:42;6.20;;;5.33;;
71696;SDS011;59528;59.082;37.926;2022-07-23T06:17:08;5.67;;;5.00;;
71696;SDS011;59528;59.082;37.926;2022-07-23T06:19:33;8.53;;;5.10;;
71696;SDS011;59528;59.082;37.926;2022-07-23T06:21:59;6.13;;;4.90;;
71696;SDS011;59528;59.082;37.926;2022-07-23T06:24:26;6.07;;;4.90;;
71696;SDS011;59528;59.082;37.926;2022-07-23T06:26:52;8.40;;;4.47;;
71696;SDS011;59528;59.082;37.926;2022-07-23T06:29:18;5.07;;;4.57;;
71696;SDS011;59528;59.082;37.926;2022-07-23T06:31:44;4.83;;;4.40;;
71696;SDS011;59528;59.082;37.926;2022-07-23T06:34:09;6.43;;;4.43;;
71696;SDS011;59528;59.082;37.926;2022-07-23T06:36:35;4.57;;;4.17;;
71696;SDS011;59528;59.082;37.926;2022-07-23T06:39:00;4.70;;;4.30;;
71696;SDS011;59528;59.082;37.926;2022-07-23T06:41:26;10.83;;;8.83;;
71696;SDS011;59528;59.082;37.926;2022-07-23T06:43:52;8.53;;;7.63;;
71696;SDS011;59528;59.082;37.926;2022-07-23T06:46:23;6.73;;;6.03;;
71696;SDS011;59528;59.082;37.926;2022-07-23T06:48:49;6.23;;;5.60;;
71696;SDS011;59528;59.082;37.926;2022-07-23T06:51:14;7.80;;;5.60;;
71696;SDS011;59528;59.082;37.926;2022-07-23T06:53:40;6.40;;;5.80;;
71696;SDS011;59528;59.082;37.926;2022-07-23T06:56:08;6.87;;;5.70;;
71696;SDS011;59528;59.082;37.926;2022-07-23T06:58:34;6.40;;;5.10;;
71696;SDS011;59528;59.082;37.926;2022-07-23T07:00:59;5.77;;;4.90;;
71696;SDS011;59528;59.082;37.926;2022-07-23T07:03:28;5.50;;;5.00;;
71696;SDS011;59528;59.082;37.926;2022-07-23T07:05:53;5.57;;;5.07;;
71696;SDS011;59528;59.082;37.926;2022-07-23T07:08:19;5.23;;;4.73;;
71696;SDS011;59528;59.082;37.926;2022-07-23T07:10:44;4.63;;;4.27;;
71696;SDS011;59528;59.082;37.926;2022-07-23T07:13:10;5.90;;;5.40;;
71696;SDS011;59528;59.082;37.926;2022-07-23T07:15:35;5.80;;;5.20;;
71696;SDS011;59528;59.082;37.926;2022-07-23T07:18:01;6.37;;;5.10;;
71696;SDS011;59528;59.082;37.926;2022-07-23T07:20:29;6.00;;;5.40;;
71696;SDS011;59528;59.082;37.926;2022-07-23T07:22:55;7.00;;;5.50;;
71696;SDS011;59528;59.082;37.926;2022-07-23T07:25:20;5.67;;;5.07;;
71696;SDS011;59528;59.082;37.926;2022-07-23T07:27:46;5.13;;;4.73;;
71696;SDS011;59528;59.082;37.926;2022-07-23T07:30:11;5.70;;;5.13;;
71696;SDS011;59528;59.082;37.926;2022-07-23T07:32:37;5.37;;;4.57;;
71696;SDS011;59528;59.082;37.926;2022-07-23T07:35:03;4.90;;;4.50;;
71696;SDS011;59528;59.082;37.926;2022-07-23T07:37:29;4.87;;;4.40;;
71696;SDS011;59528;59.082;37.926;2022-07-23T07:39:55;4.83;;;4.33;;
71696;SDS011;59528;59.082;37.926;2022-07-23T07:42:21;7.80;;;4.50;;
71696;SDS011;59528;59.082;37.926;2022-07-23T07:44:46;4.63;;;4.23;;
71696;SDS011;59528;59.082;37.926;2022-07-23T07:47:12;4.60;;;4.20;;
71696;SDS011;59528;59.082;37.926;2022-07-23T07:49:39;5.73;;;4.17;;
71696;SDS011;59528;59.082;37.926;2022-07-23T07:52:04;4.30;;;3.90;;
71696;SDS011;59528;59.082;37.926;2022-07-23T07:54:34;4.17;;;3.87;;
71696;SDS011;59528;59.082;37.926;2022-07-23T07:56:59;4.63;;;4.23;;
71696;SDS011;59528;59.082;37.926;2022-07-23T07:59:25;4.77;;;4.30;;
71696;SDS011;59528;59.082;37.926;2022-07-23T08:01:51;5.37;;;3.53;;
71696;SDS011;59528;59.082;37.926;2022-07-23T08:04:16;4.60;;;4.20;;
71696;SDS011;59528;59.082;37.926;2022-07-23T08:06:42;4.53;;;4.20;;
71696;SDS011;59528;59.082;37.926;2022-07-23T08:09:08;4.17;;;3.87;;
71696;SDS011;59528;59.082;37.926;2022-07-23T08:11:33;4.37;;;3.97;;
71696;SDS011;59528;59.082;37.926;2022-07-23T08:13:59;4.63;;;4.23;;
71696;SDS011;59528;59.082;37.926;2022-07-23T08:16:24;4.47;;;4.00;;
71696;SDS011;59528;59.082;37.926;2022-07-23T08:18:50;4.80;;;4.40;;
71696;SDS011;59528;59.082;37.926;2022-07-23T08:21:16;5.70;;;4.20;;
71696;SDS011;59528;59.082;37.926;2022-07-23T08:23:41;5.07;;;4.67;;
71696;SDS011;59528;59.082;37.926;2022-07-23T08:26:07;6.70;;;4.90;;
71696;SDS011;59528;59.082;37.926;2022-07-23T08:28:32;4.20;;;3.90;;
71696;SDS011;59528;59.082;37.926;2022-07-23T08:30:58;4.30;;;3.90;;
71696;SDS011;59528;59.082;37.926;2022-07-23T08:33:24;4.73;;;4.20;;
71696;SDS011;59528;59.082;37.926;2022-07-23T08:35:50;4.40;;;4.00;;
71696;SDS011;59528;59.082;37.926;2022-07-23T08:38:21;4.47;;;4.07;;
71696;SDS011;59528;59.082;37.926;2022-07-23T08:40:48;4.97;;;4.07;;
71696;SDS011;59528;59.082;37.926;2022-07-23T08:43:15;4.80;;;4.40;;
71696;SDS011;59528;59.082;37.926;2022-07-23T08:45:41;5.67;;;4.67;;
71696;SDS011;59528;59.082;37.926;2022-07-23T08:48:08;5.07;;;4.67;;
71696;SDS011;59528;59.082;37.926;2022-07-23T08:50:34;5.00;;;4.60;;
71696;SDS011;59528;59.082;37.926;2022-07-23T08:53:02;4.30;;;3.90;;
71696;SDS011;59528;59.082;37.926;2022-07-23T08:55:27;4.40;;;4.00;;
71696;SDS011;59528;59.082;37.926;2022-07-23T08:57:53;4.20;;;3.90;;
71696;SDS011;59528;59.082;37.926;2022-07-23T09:00:19;5.00;;;4.20;;
71696;SDS011;59528;59.082;37.926;2022-07-23T09:02:46;4.77;;;4.20;;
71696;SDS011;59528;59.082;37.926;2022-07-23T09:05:12;5.07;;;4.67;;
71696;SDS011;59528;59.082;37.926;2022-07-23T09:07:38;4.87;;;4.47;;
71696;SDS011;59528;59.082;37.926;2022-07-23T09:10:23;5.97;;;4.50;;
71696;SDS011;59528;59.082;37.926;2022-07-23T09:12:49;6.10;;;4.67;;
71696;SDS011;59528;59.082;37.926;2022-07-23T09:15:14;5.03;;;4.63;;
71696;SDS011;59528;59.082;37.926;2022-07-23T09:17:43;4.77;;;4.23;;
71696;SDS011;59528;59.082;37.926;2022-07-23T09:20:12;6.33;;;5.83;;
71696;SDS011;59528;59.082;37.926;2022-07-23T09:22:38;5.77;;;5.20;;
71696;SDS011;59528;59.082;37.926;2022-07-23T09:25:09;6.33;;;5.73;;
71696;SDS011;59528;59.082;37.926;2022-07-23T09:30:16;4.67;;;4.27;;
71696;SDS011;59528;59.082;37.926;2022-07-23T09:32:56;4.23;;;3.93;;
71696;SDS011;59528;59.082;37.926;2022-07-23T09:38:12;4.77;;;4.37;;
71696;SDS011;59528;59.082;37.926;2022-07-23T09:40:37;4.88;;;4.53;;
71696;SDS011;59528;59.082;37.926;2022-07-23T09:43:03;4.38;;;3.92;;
71696;SDS011;59528;59.082;37.926;2022-07-23T09:45:30;4.80;;;4.30;;
71696;SDS011;59528;59.082;37.926;2022-07-23T09:48:14;4.82;;;4.43;;
71696;SDS011;59528;59.082;37.926;2022-07-23T09:50:41;5.30;;;4.70;;
71696;SDS011;59528;59.082;37.926;2022-07-23T09:53:07;4.70;;;4.30;;
71696;SDS011;59528;59.082;37.926;2022-07-23T09:55:33;4.55;;;4.15;;
71696;SDS011;59528;59.082;37.926;2022-07-23T09:58:02;5.95;;;4.35;;
71696;SDS011;59528;59.082;37.926;2022-07-23T10:00:28;8.68;;;5.10;;
71696;SDS011;59528;59.082;37.926;2022-07-23T10:02:54;5.57;;;4.90;;
71696;SDS011;59528;59.082;37.926;2022-07-23T10:05:43;4.88;;;4.47;;
71696;SDS011;59528;59.082;37.926;2022-07-23T10:08:27;5.15;;;4.75;;
71696;SDS011;59528;59.082;37.926;2022-07-23T10:11:31;5.13;;;4.55;;
71696;SDS011;59528;59.082;37.926;2022-07-23T10:14:05;4.97;;;4.57;;
71696;SDS011;59528;59.082;37.926;2022-07-23T10:16:51;5.25;;;4.40;;
71696;SDS011;59528;59.082;37.926;2022-07-23T10:19:17;5.50;;;4.93;;
71696;SDS011;59528;59.082;37.926;2022-07-23T10:21:46;4.93;;;4.43;;
71696;SDS011;59528;59.082;37.926;2022-07-23T10:26:52;4.68;;;4.20;;
71696;SDS011;59528;59.082;37.926;2022-07-23T10:31:58;8.10;;;4.30;;
71696;SDS011;59528;59.082;37.926;2022-07-23T10:34:29;4.10;;;3.80;;
71696;SDS011;59528;59.082;37.926;2022-07-23T10:37:03;4.13;;;3.60;;
71696;SDS011;59528;59.082;37.926;2022-07-23T10:39:33;4.10;;;3.55;;
71696;SDS011;59528;59.082;37.926;2022-07-23T10:44:37;11.02;;;9.43;;
71696;SDS011;59528;59.082;37.926;2022-07-23T10:47:04;7.40;;;6.72;;
71696;SDS011;59528;59.082;37.926;2022-07-23T10:49:41;5.70;;;5.20;;
71696;SDS011;59528;59.082;37.926;2022-07-23T10:54:38;8.85;;;4.82;;
71696;SDS011;59528;59.082;37.926;2022-07-23T10:57:04;5.25;;;4.85;;
71696;SDS011;59528;59.082;37.926;2022-07-23T10:59:31;4.82;;;4.40;;
71696;SDS011;59528;59.082;37.926;2022-07-23T11:04:47;4.50;;;4.20;;
71696;SDS011;59528;59.082;37.926;2022-07-23T11:07:14;6.57;;;4.47;;
71696;SDS011;59528;59.082;37.926;2022-07-23T11:09:41;4.30;;;3.90;;
71696;SDS011;59528;59.082;37.926;2022-07-23T11:12:48;4.22;;;3.83;;
71696;SDS011;59528;59.082;37.926;2022-07-23T11:17:27;3.72;;;3.50;;
71696;SDS011;59528;59.082;37.926;2022-07-23T11:25:08;3.88;;;3.55;;
71696;SDS011;59528;59.082;37.926;2022-07-23T11:27:37;3.50;;;3.20;;
71696;SDS011;59528;59.082;37.926;2022-07-23T11:30:04;4.28;;;3.25;;
71696;SDS011;59528;59.082;37.926;2022-07-23T11:32:31;4.22;;;3.20;;
71696;SDS011;59528;59.082;37.926;2022-07-23T11:34:58;5.75;;;3.38;;
71696;SDS011;59528;59.082;37.926;2022-07-23T11:37:33;5.20;;;3.22;;
71696;SDS011;59528;59.082;37.926;2022-07-23T11:40:00;3.65;;;3.38;;
71696;SDS011;59528;59.082;37.926;2022-07-23T11:42:25;3.33;;;3.13;;
71696;SDS011;59528;59.082;37.926;2022-07-23T11:44:54;3.60;;;3.40;;
71696;SDS011;59528;59.082;37.926;2022-07-23T11:47:23;3.70;;;3.38;;
71696;SDS011;59528;59.082;37.926;2022-07-23T11:49:53;3.80;;;3.38;;
71696;SDS011;59528;59.082;37.926;2022-07-23T11:52:18;3.90;;;3.38;;
71696;SDS011;59528;59.082;37.926;2022-07-23T11:54:48;3.28;;;3.08;;
71696;SDS011;59528;59.082;37.926;2022-07-23T11:57:14;4.38;;;3.92;;
71696;SDS011;59528;59.082;37.926;2022-07-23T11:59:40;5.22;;;3.40;;
71696;SDS011;59528;59.082;37.926;2022-07-23T12:02:06;3.50;;;3.20;;
71696;SDS011;59528;59.082;37.926;2022-07-23T12:04:44;3.40;;;3.10;;
71696;SDS011;59528;59.082;37.926;2022-07-23T12:10:29;4.05;;;3.38;;
71696;SDS011;59528;59.082;37.926;2022-07-23T12:12:59;3.88;;;3.17;;
71696;SDS011;59528;59.082;37.926;2022-07-23T12:15:36;3.33;;;3.03;;
71696;SDS011;59528;59.082;37.926;2022-07-23T12:18:04;4.38;;;3.28;;
71696;SDS011;59528;59.082;37.926;2022-07-23T12:20:40;4.72;;;3.42;;
71696;SDS011;59528;59.082;37.926;2022-07-23T12:23:08;5.95;;;3.30;;
71696;SDS011;59528;59.082;37.926;2022-07-23T12:25:38;5.30;;;3.10;;
71696;SDS011;59528;59.082;37.926;2022-07-23T12:30:43;3.58;;;2.90;;
71696;SDS011;59528;59.082;37.926;2022-07-23T12:33:09;4.43;;;3.30;;
71696;SDS011;59528;59.082;37.926;2022-07-23T12:35:39;5.00;;;2.90;;
71696;SDS011;59528;59.082;37.926;2022-07-23T12:38:07;3.42;;;3.13;;
71696;SDS011;59528;59.082;37.926;2022-07-23T12:43:00;3.50;;;3.30;;
71696;SDS011;59528;59.082;37.926;2022-07-23T12:45:28;3.60;;;3.22;;
71696;SDS011;59528;59.082;37.926;2022-07-23T12:53:02;4.22;;;2.90;;
71696;SDS011;59528;59.082;37.926;2022-07-23T12:55:28;4.65;;;3.25;;
71696;SDS011;59528;59.082;37.926;2022-07-23T12:58:02;3.10;;;2.90;;
71696;SDS011;59528;59.082;37.926;2022-07-23T13:00:28;3.15;;;2.95;;
71696;SDS011;59528;59.082;37.926;2022-07-23T13:02:53;3.72;;;3.42;;
71696;SDS011;59528;59.082;37.926;2022-07-23T13:05:19;3.10;;;2.80;;
71696;SDS011;59528;59.082;37.926;2022-07-23T13:07:44;3.20;;;3.00;;
71696;SDS011;59528;59.082;37.926;2022-07-23T13:10:10;3.47;;;3.28;;
71696;SDS011;59528;59.082;37.926;2022-07-23T13:12:37;3.67;;;3.40;;
71696;SDS011;59528;59.082;37.926;2022-07-23T13:15:03;3.95;;;3.65;;
71696;SDS011;59528;59.082;37.926;2022-07-23T13:17:28;4.00;;;3.70;;
71696;SDS011;59528;59.082;37.926;2022-07-23T13:19:54;3.75;;;3.45;;
71696;SDS011;59528;59.082;37.926;2022-07-23T13:22:19;3.92;;;3.53;;
71696;SDS011;59528;59.082;37.926;2022-07-23T13:24:45;4.18;;;3.78;;
71696;SDS011;59528;59.082;37.926;2022-07-23T13:27:10;3.95;;;3.65;;
71696;SDS011;59528;59.082;37.926;2022-07-23T13:29:36;4.53;;;3.70;;
71696;SDS011;59528;59.082;37.926;2022-07-23T13:32:01;4.10;;;3.70;;
71696;SDS011;59528;59.082;37.926;2022-07-23T13:34:27;4.53;;;3.58;;
71696;SDS011;59528;59.082;37.926;2022-07-23T13:36:52;4.68;;;3.90;;
71696;SDS011;59528;59.082;37.926;2022-07-23T13:39:18;5.00;;;4.10;;
71696;SDS011;59528;59.082;37.926;2022-07-23T13:41:43;3.95;;;3.58;;
71696;SDS011;59528;59.082;37.926;2022-07-23T13:44:09;4.47;;;3.50;;
71696;SDS011;59528;59.082;37.926;2022-07-23T13:46:37;3.72;;;3.42;;
71696;SDS011;59528;59.082;37.926;2022-07-23T13:49:03;4.38;;;3.60;;
71696;SDS011;59528;59.082;37.926;2022-07-23T13:51:28;3.70;;;3.40;;
71696;SDS011;59528;59.082;37.926;2022-07-23T13:53:54;3.85;;;3.55;;
71696;SDS011;59528;59.082;37.926;2022-07-23T13:56:19;4.22;;;3.70;;
71696;SDS011;59528;59.082;37.926;2022-07-23T13:58:45;7.07;;;3.65;;
71696;SDS011;59528;59.082;37.926;2022-07-23T14:01:10;3.83;;;3.53;;
71696;SDS011;59528;59.082;37.926;2022-07-23T14:03:36;4.25;;;3.22;;
71696;SDS011;59528;59.082;37.926;2022-07-23T14:06:02;4.00;;;3.42;;
71696;SDS011;59528;59.082;37.926;2022-07-23T14:08:28;4.22;;;3.83;;
71696;SDS011;59528;59.082;37.926;2022-07-23T14:10:53;4.03;;;3.72;;
71696;SDS011;59528;59.082;37.926;2022-07-23T14:13:19;4.25;;;3.85;;
71696;SDS011;59528;59.082;37.926;2022-07-23T14:15:44;4.40;;;3.65;;
71696;SDS011;59528;59.082;37.926;2022-07-23T14:18:10;4.22;;;3.83;;
71696;SDS011;59528;59.082;37.926;2022-07-23T14:20:36;4.18;;;3.85;;
71696;SDS011;59528;59.082;37.926;2022-07-23T14:23:02;6.28;;;3.45;;
71696;SDS011;59528;59.082;37.926;2022-07-23T14:25:28;4.40;;;3.65;;
71696;SDS011;59528;59.082;37.926;2022-07-23T14:27:53;4.00;;;3.60;;
71696;SDS011;59528;59.082;37.926;2022-07-23T14:30:19;5.13;;;4.03;;
71696;SDS011;59528;59.082;37.926;2022-07-23T14:32:45;4.22;;;3.83;;
71696;SDS011;59528;59.082;37.926;2022-07-23T14:35:10;3.75;;;3.45;;
71696;SDS011;59528;59.082;37.926;2022-07-23T14:37:39;8.55;;;4.00;;
71696;SDS011;59528;59.082;37.926;2022-07-23T14:40:05;6.43;;;3.38;;
71696;SDS011;59528;59.082;37.926;2022-07-23T14:42:30;4.97;;;3.78;;
71696;SDS011;59528;59.082;37.926;2022-07-23T14:44:56;11.48;;;4.10;;
71696;SDS011;59528;59.082;37.926;2022-07-23T14:47:21;7.97;;;3.55;;
71696;SDS011;59528;59.082;37.926;2022-07-23T14:49:47;6.38;;;3.50;;
71696;SDS011;59528;59.082;37.926;2022-07-23T14:52:13;7.35;;;3.50;;
71696;SDS011;59528;59.082;37.926;2022-07-23T14:54:39;6.95;;;3.88;;
71696;SDS011;59528;59.082;37.926;2022-07-23T14:57:05;7.35;;;3.67;;
71696;SDS011;59528;59.082;37.926;2022-07-23T14:59:33;4.38;;;3.50;;
71696;SDS011;59528;59.082;37.926;2022-07-23T15:01:58;3.95;;;3.55;;
71696;SDS011;59528;59.082;37.926;2022-07-23T15:04:24;6.15;;;3.47;;
71696;SDS011;59528;59.082;37.926;2022-07-23T15:06:50;5.35;;;3.20;;
71696;SDS011;59528;59.082;37.926;2022-07-23T15:09:15;5.03;;;3.28;;